• Join FlightAware (Why Join?)
  • Login
  • US Flag 
10:50AM EDT


 

Airport Tracker/Info


-or-


 

Live Flight TrackerFlight Track Log ✈ N422TB ✈ 24-May-2013 ✈ KISM - KFXE

Flight Track Log - Related Links

Times and Time Zones

All times are in EDT time to prevent confusion due to time zone crossing. See the N422TB flight status page for this flight to view local times or setup timezone preferences in your user account.

Time Position Orientation Groundspeed Altitude Reporting Facility
EDT Latitude Longitude Course Direction KTS MPH feet Rate Location/Type
04:15PM 28.3000 -81.4333 300° West 104 120 400  Level Orlando TRACON
04:16PM 28.3167 -81.4667 300° West 109 125 1,600 1,080 Climbing Orlando TRACON
04:17PM 28.3500 -81.4833 336° Northwest 108 124 2,700 660 Climbing Orlando TRACON
04:18PM 28.3833 -81.4833 360° North 148 170 3,100 300 Climbing Orlando TRACON
04:19PM 28.4167 -81.4833 360° North 156 180 3,400 420 Climbing Orlando TRACON
04:21PM 28.4167 -81.4333 90° East 149 171 4,000 300 Climbing Orlando TRACON
04:21PM 28.4167 -81.3833 90° East 165 190 4,000  Level Orlando TRACON
04:22PM 28.4167 -81.3333 90° East 175 201 4,100  Climbing Orlando TRACON
04:23PM 28.4167 -81.2667 90° East 177 204 4,000 -60 Descending Orlando TRACON
04:24PM 28.4167 -81.2167 90° East 175 201 4,000  Level Orlando TRACON
04:25PM 28.4167 -81.1500 90° East 181 208 4,000 420 Level Orlando TRACON
04:26PM 28.4000 -81.1000 111° Southeast 146 168 4,900 900 Climbing Orlando TRACON
04:27PM 28.3833 -81.0667 120° Southeast 141 162 5,800 840 Climbing Orlando TRACON
04:28PM 28.3667 -81.0167 111° Southeast 145 167 6,600 840 Climbing Orlando TRACON
04:29PM 28.3500 -80.9833 120° Southeast 148 170 7,400 840 Climbing Orlando TRACON
04:30PM 28.3417 -80.9797 159° South 142 163 7,600 720 Climbing Miami Center
04:31PM 28.3242 -80.9389 116° Southeast 142 163 8,400 720 Climbing Miami Center
04:32PM 28.2936 -80.9119 142° Southeast 142 163 9,100 660 Climbing Miami Center
04:33PM 28.2522 -80.8986 164° South 142 163 9,800 480 Climbing Miami Center
04:34PM 28.2108 -80.8878 167° South 147 169 10,100 120 Climbing Miami Center
04:35PM 28.1631 -80.8742 166° South 167 192 10,100  Level Miami Center
04:35PM 28.1333 -80.8667 167° South 190 219 10,100  Level Orlando TRACON
04:36PM 28.0833 -80.8500 164° South 182 209 10,100 -120 Level Orlando TRACON
04:39PM 27.9744 -80.8253 169° South 181 208 9,900 -240 Descending Miami Center
04:40PM 27.9144 -80.8114 168° South 186 214 9,400 -480 Descending Miami Center
04:41PM 27.8625 -80.8025 171° South 186 214 9,000 -480 Descending Miami Center
04:42PM 27.8106 -80.7939 172° South 191 220 8,500 -480 Descending Miami Center
04:43PM 27.7628 -80.7897 176° South 196 226 8,100 -240 Descending Miami Center
04:44PM 27.7128 -80.7856 176° South 189 217 8,100  Level Miami Center
04:45PM 27.6586 -80.7814 176° South 178 205 8,100  Level Miami Center
04:46PM 27.6086 -80.7775 176° South 178 205 8,100  Level Miami Center
04:47PM 27.5608 -80.7689 171° South 178 205 8,100  Level Miami Center
04:48PM 27.5169 -80.7650 176° South 178 205 8,100  Level Miami Center
04:49PM 27.4711 -80.7611 176° South 178 205 8,100  Level Miami Center
04:50PM 27.4172 -80.7544 174° South 178 205 8,100  Level Miami Center
04:51PM 27.3692 -80.7483 174° South 178 205 8,100  Level Miami Center
04:52PM 27.3192 -80.7442 176° South 178 205 8,100  Level Miami Center
04:53PM 27.2736 -80.7381 173° South 183 211 8,100  Level Miami Center
04:54PM 27.2236 -80.7339 176° South 183 211 8,100  Level Miami Center
04:55PM 27.1694 -80.7275 174° South 176 203 8,100  Level Miami Center
04:56PM 27.1214 -80.7214 174° South 176 203 8,100  Level Miami Center
04:57PM 27.0736 -80.7172 176° South 176 203 8,100  Level Miami Center
04:58PM 27.0278 -80.7158 178° South 176 203 8,100  Level Miami Center
04:59PM 26.9797 -80.7094 173° South 176 203 8,100 -60 Level Miami Center
05:00PM 26.9236 -80.7031 174° South 181 208 8,000  Descending Miami Center
05:01PM 26.8736 -80.6967 173° South 181 208 8,100 -660 Climbing Miami Center
05:03PM 26.7792 -80.6617 162° South  Level FlightAware Approximate
05:07PM 26.5489 -80.5817 156° South 189 217 3,500  Level Miami Center
05:08PM 26.5136 -80.5667 159° South 190 219 3,200 -240 Descending Miami Center
05:09PM 26.4600 -80.5394 156° South 180 207 3,100 -60 Descending Miami Center
05:10PM 26.4158 -80.5219 163° South  Level FlightAware Approximate
05:10PM 26.4125 -80.5169 157° South 179 206 3,100  Level Miami Center
05:11PM 26.3694 -80.4930 156° South  Level FlightAware Approximate
05:11PM 26.3611 -80.4947 159° South 184 212 3,000  Level Miami Center
05:12PM 26.3199 -80.4682 156° South  Level FlightAware Approximate
05:12PM 26.3281 -80.4750 152° Southeast 162 186 3,000  Level Miami Center
05:13PM 26.2806 -80.4550 159° South 158 182 3,100  Climbing Miami Center
05:14PM 26.2394 -80.4306 152° Southeast 161 185 3,100 -60 Level Miami Center
05:15PM 26.1936 -80.4156 164° South 160 184 3,000 -360 Descending Miami Center
05:16PM 26.1631 -80.3914 145° Southeast 146 168 2,400 -420 Descending Miami Center
05:17PM 26.1722 -80.3547 74° East 110 127 2,200 -60 Descending Miami Center
05:18PM 26.1794 -80.3178 78° East 120 138 2,300 -240 Climbing Miami Center
05:19PM 26.1825 -80.2786 85° East 110 127 1,800 -540 Descending Miami Center
05:20PM 26.1850 -80.2556 83° East 87 100 1,300 -540 Descending Miami Center
05:21PM 26.1897 -80.2300 78° East 87 100 900 -420 Descending Miami Center
05:22PM 26.1947 -80.2000 79° East 83 96 400 -480 Descending Miami Center
05:24PM 26.1833 -80.1667 77° East  Level FlightAware Approximate
05:31PM 26.1973 -80.1707 77° East  Level Estimated